If you wish to contribute or participate in the discussions about articles you are invited to join SKYbrary as a registered user

 Actions

Hanamaki Airport

From SKYbrary Wiki

RJSI
Airport
ICAO: RJSI – IATA: HNA
Summary
Name Hanamaki Airport
Region Asia and Pacific
Territory Japan JP.gif
Location Hanamaki, Iwate Prefecture
Serving Hanamaki
Elevation 89.611 m
294 ft
294 ft89.611 m
Coordinates 39° 25' 17.36" N, 141° 8' 18.27" E
Runways
Designator Length Width Surface ROPS
2/20 2500 m8,202.1 ft
45 m147.638 ft
ASP yes/yes


METAR
Observation RJSI 160100Z 23010KT 180V270 9999 FEW030 SCT050 13/02 Q1017
Station Hanamaki Airport
Date/Time 16 April 2019 01:00:00
Wind direction 230°
Wind speed 10 kts
Lowest cloud amount few clouds
Temperature 13°C
Dew point 2°C
Humidity 47%
QNH 1017 hPa
Weather condition n/a

Regional airport located 6 km3.24 nm
6,000 m
19,685.039 ft
north-northeast of the city of Hanamaki, Iwate Prefecture, in the Tohoku region of northern Japan.

Climatology

Humid Sub-tropical climate (Köppen climate classification Cfa)

Maps

Terrain

Loading map...

Airport Layout

Loading map...


Accidents & Serious Incidents at or in vicinity of RJSI

None on SKYbrary